sensor_id;sensor_type;location;lat;lon;timestamp;P1;durP1;ratioP1;P2;durP2;ratioP2
63046;SDS011;62025;39.238;9.126;2023-09-19T00:00:38;16.52;;;3.90;;
63046;SDS011;62025;39.238;9.126;2023-09-19T00:03:06;16.85;;;3.50;;
63046;SDS011;62025;39.238;9.126;2023-09-19T00:05:36;16.58;;;4.20;;
63046;SDS011;62025;39.238;9.126;2023-09-19T00:08:04;19.00;;;4.35;;
63046;SDS011;62025;39.238;9.126;2023-09-19T00:10:31;20.55;;;5.03;;
63046;SDS011;62025;39.238;9.126;2023-09-19T00:13:02;19.77;;;4.45;;
63046;SDS011;62025;39.238;9.126;2023-09-19T00:15:36;20.08;;;4.22;;
63046;SDS011;62025;39.238;9.126;2023-09-19T00:18:13;20.33;;;4.50;;
63046;SDS011;62025;39.238;9.126;2023-09-19T00:20:40;15.18;;;3.95;;
63046;SDS011;62025;39.238;9.126;2023-09-19T00:23:07;17.63;;;4.65;;
63046;SDS011;62025;39.238;9.126;2023-09-19T00:25:36;15.27;;;4.50;;
63046;SDS011;62025;39.238;9.126;2023-09-19T00:28:03;16.48;;;4.40;;
63046;SDS011;62025;39.238;9.126;2023-09-19T00:30:35;15.77;;;4.50;;
63046;SDS011;62025;39.238;9.126;2023-09-19T00:33:04;20.05;;;4.75;;
63046;SDS011;62025;39.238;9.126;2023-09-19T00:35:33;20.73;;;5.97;;
63046;SDS011;62025;39.238;9.126;2023-09-19T00:37:59;21.02;;;5.53;;
63046;SDS011;62025;39.238;9.126;2023-09-19T00:40:25;16.95;;;5.45;;
63046;SDS011;62025;39.238;9.126;2023-09-19T00:42:51;25.02;;;5.00;;
63046;SDS011;62025;39.238;9.126;2023-09-19T00:45:24;17.88;;;4.28;;
63046;SDS011;62025;39.238;9.126;2023-09-19T00:47:50;18.40;;;4.25;;
63046;SDS011;62025;39.238;9.126;2023-09-19T00:50:17;20.65;;;4.70;;
63046;SDS011;62025;39.238;9.126;2023-09-19T00:52:46;23.90;;;4.93;;
63046;SDS011;62025;39.238;9.126;2023-09-19T00:55:15;21.17;;;4.10;;
63046;SDS011;62025;39.238;9.126;2023-09-19T00:57:45;18.40;;;4.25;;
63046;SDS011;62025;39.238;9.126;2023-09-19T01:00:12;20.15;;;4.57;;
63046;SDS011;62025;39.238;9.126;2023-09-19T01:02:44;21.15;;;5.25;;
63046;SDS011;62025;39.238;9.126;2023-09-19T01:05:12;21.10;;;4.97;;
63046;SDS011;62025;39.238;9.126;2023-09-19T01:07:38;24.55;;;5.07;;
63046;SDS011;62025;39.238;9.126;2023-09-19T01:10:13;21.27;;;5.10;;
63046;SDS011;62025;39.238;9.126;2023-09-19T01:21:03;15.77;;;4.40;;
63046;SDS011;62025;39.238;9.126;2023-09-19T01:23:59;23.75;;;4.72;;
63046;SDS011;62025;39.238;9.126;2023-09-19T01:29:38;16.40;;;3.97;;
63046;SDS011;62025;39.238;9.126;2023-09-19T01:32:10;15.43;;;4.30;;
63046;SDS011;62025;39.238;9.126;2023-09-19T01:34:45;14.23;;;4.15;;
63046;SDS011;62025;39.238;9.126;2023-09-19T01:37:18;22.10;;;4.10;;
63046;SDS011;62025;39.238;9.126;2023-09-19T01:39:50;14.50;;;3.95;;
63046;SDS011;62025;39.238;9.126;2023-09-19T01:51:18;15.68;;;4.05;;
63046;SDS011;62025;39.238;9.126;2023-09-19T01:54:00;17.15;;;4.30;;
63046;SDS011;62025;39.238;9.126;2023-09-19T01:56:45;18.27;;;3.70;;
63046;SDS011;62025;39.238;9.126;2023-09-19T02:01:54;19.98;;;3.42;;
63046;SDS011;62025;39.238;9.126;2023-09-19T02:04:21;11.90;;;3.45;;
63046;SDS011;62025;39.238;9.126;2023-09-19T02:06:47;21.10;;;3.75;;
63046;SDS011;62025;39.238;9.126;2023-09-19T02:09:13;17.38;;;3.50;;
63046;SDS011;62025;39.238;9.126;2023-09-19T02:11:40;16.80;;;3.90;;
63046;SDS011;62025;39.238;9.126;2023-09-19T02:14:07;15.57;;;4.22;;
63046;SDS011;62025;39.238;9.126;2023-09-19T02:16:34;18.90;;;3.58;;
63046;SDS011;62025;39.238;9.126;2023-09-19T02:19:00;12.80;;;3.42;;
63046;SDS011;62025;39.238;9.126;2023-09-19T02:21:30;16.85;;;4.53;;
63046;SDS011;62025;39.238;9.126;2023-09-19T02:23:57;17.25;;;3.58;;
63046;SDS011;62025;39.238;9.126;2023-09-19T02:26:24;14.10;;;3.55;;
63046;SDS011;62025;39.238;9.126;2023-09-19T02:28:50;15.60;;;3.53;;
63046;SDS011;62025;39.238;9.126;2023-09-19T02:31:16;14.23;;;3.88;;
63046;SDS011;62025;39.238;9.126;2023-09-19T02:33:42;16.02;;;3.72;;
63046;SDS011;62025;39.238;9.126;2023-09-19T02:36:08;12.50;;;3.50;;
63046;SDS011;62025;39.238;9.126;2023-09-19T02:38:34;16.30;;;3.33;;
63046;SDS011;62025;39.238;9.126;2023-09-19T02:41:02;18.92;;;4.07;;
63046;SDS011;62025;39.238;9.126;2023-09-19T02:43:29;15.20;;;3.60;;
63046;SDS011;62025;39.238;9.126;2023-09-19T02:45:55;21.42;;;4.25;;
63046;SDS011;62025;39.238;9.126;2023-09-19T02:48:22;12.25;;;3.42;;
63046;SDS011;62025;39.238;9.126;2023-09-19T02:50:51;16.35;;;4.03;;
63046;SDS011;62025;39.238;9.126;2023-09-19T02:53:17;22.30;;;4.03;;
63046;SDS011;62025;39.238;9.126;2023-09-19T02:55:44;21.13;;;3.92;;
63046;SDS011;62025;39.238;9.126;2023-09-19T02:58:10;28.25;;;4.57;;
63046;SDS011;62025;39.238;9.126;2023-09-19T03:00:37;22.48;;;4.18;;
63046;SDS011;62025;39.238;9.126;2023-09-19T03:03:03;22.25;;;3.92;;
63046;SDS011;62025;39.238;9.126;2023-09-19T03:05:32;20.10;;;3.97;;
63046;SDS011;62025;39.238;9.126;2023-09-19T03:07:58;22.55;;;4.88;;
63046;SDS011;62025;39.238;9.126;2023-09-19T03:10:26;27.48;;;4.10;;
63046;SDS011;62025;39.238;9.126;2023-09-19T03:12:54;27.52;;;4.50;;
63046;SDS011;62025;39.238;9.126;2023-09-19T03:15:20;24.65;;;5.10;;
63046;SDS011;62025;39.238;9.126;2023-09-19T03:17:49;20.27;;;4.18;;
63046;SDS011;62025;39.238;9.126;2023-09-19T03:20:19;21.67;;;4.47;;
63046;SDS011;62025;39.238;9.126;2023-09-19T03:22:47;23.30;;;4.28;;
63046;SDS011;62025;39.238;9.126;2023-09-19T03:25:15;25.77;;;4.07;;
63046;SDS011;62025;39.238;9.126;2023-09-19T03:27:44;32.72;;;4.50;;
63046;SDS011;62025;39.238;9.126;2023-09-19T03:30:12;32.83;;;4.10;;
63046;SDS011;62025;39.238;9.126;2023-09-19T03:32:44;22.50;;;3.80;;
63046;SDS011;62025;39.238;9.126;2023-09-19T03:35:16;27.08;;;4.38;;
63046;SDS011;62025;39.238;9.126;2023-09-19T03:37:43;22.50;;;4.80;;
63046;SDS011;62025;39.238;9.126;2023-09-19T03:40:10;24.80;;;4.18;;
63046;SDS011;62025;39.238;9.126;2023-09-19T03:42:40;25.77;;;3.72;;
63046;SDS011;62025;39.238;9.126;2023-09-19T03:45:09;23.92;;;3.72;;
63046;SDS011;62025;39.238;9.126;2023-09-19T03:47:43;28.02;;;4.75;;
63046;SDS011;62025;39.238;9.126;2023-09-19T03:50:12;24.73;;;4.20;;
63046;SDS011;62025;39.238;9.126;2023-09-19T03:52:43;23.60;;;4.82;;
63046;SDS011;62025;39.238;9.126;2023-09-19T03:55:10;28.30;;;5.45;;
63046;SDS011;62025;39.238;9.126;2023-09-19T03:57:37;24.25;;;4.32;;
63046;SDS011;62025;39.238;9.126;2023-09-19T04:00:04;26.48;;;4.00;;
63046;SDS011;62025;39.238;9.126;2023-09-19T04:02:38;28.95;;;4.40;;
63046;SDS011;62025;39.238;9.126;2023-09-19T04:05:05;24.65;;;4.63;;
63046;SDS011;62025;39.238;9.126;2023-09-19T04:07:32;18.10;;;4.00;;
63046;SDS011;62025;39.238;9.126;2023-09-19T04:09:59;31.17;;;4.80;;
63046;SDS011;62025;39.238;9.126;2023-09-19T04:12:26;28.17;;;4.78;;
63046;SDS011;62025;39.238;9.126;2023-09-19T04:14:52;22.88;;;4.72;;
63046;SDS011;62025;39.238;9.126;2023-09-19T04:17:18;36.10;;;4.30;;
63046;SDS011;62025;39.238;9.126;2023-09-19T04:19:44;25.10;;;4.15;;
63046;SDS011;62025;39.238;9.126;2023-09-19T04:22:10;23.38;;;5.25;;
63046;SDS011;62025;39.238;9.126;2023-09-19T04:24:38;29.80;;;4.35;;
63046;SDS011;62025;39.238;9.126;2023-09-19T04:27:04;21.27;;;4.03;;
63046;SDS011;62025;39.238;9.126;2023-09-19T04:29:30;19.42;;;3.30;;
63046;SDS011;62025;39.238;9.126;2023-09-19T04:31:56;28.35;;;4.15;;
63046;SDS011;62025;39.238;9.126;2023-09-19T04:34:23;24.60;;;4.78;;
63046;SDS011;62025;39.238;9.126;2023-09-19T04:36:49;22.65;;;4.60;;
63046;SDS011;62025;39.238;9.126;2023-09-19T04:39:15;25.10;;;4.35;;
63046;SDS011;62025;39.238;9.126;2023-09-19T04:41:42;29.85;;;4.32;;
63046;SDS011;62025;39.238;9.126;2023-09-19T04:44:11;32.38;;;4.85;;
63046;SDS011;62025;39.238;9.126;2023-09-19T04:46:38;26.27;;;5.28;;
63046;SDS011;62025;39.238;9.126;2023-09-19T04:49:04;26.30;;;4.90;;
63046;SDS011;62025;39.238;9.126;2023-09-19T04:51:30;22.60;;;4.60;;
63046;SDS011;62025;39.238;9.126;2023-09-19T04:53:59;32.03;;;5.15;;
63046;SDS011;62025;39.238;9.126;2023-09-19T04:56:26;26.83;;;5.00;;
63046;SDS011;62025;39.238;9.126;2023-09-19T04:58:53;29.42;;;4.35;;
63046;SDS011;62025;39.238;9.126;2023-09-19T05:01:19;24.60;;;4.57;;
63046;SDS011;62025;39.238;9.126;2023-09-19T05:03:47;30.45;;;5.35;;
63046;SDS011;62025;39.238;9.126;2023-09-19T05:06:18;27.70;;;5.18;;
63046;SDS011;62025;39.238;9.126;2023-09-19T05:08:48;26.25;;;4.65;;
63046;SDS011;62025;39.238;9.126;2023-09-19T05:11:18;23.23;;;5.10;;
63046;SDS011;62025;39.238;9.126;2023-09-19T05:13:48;26.48;;;5.47;;
63046;SDS011;62025;39.238;9.126;2023-09-19T05:16:15;20.85;;;4.78;;
63046;SDS011;62025;39.238;9.126;2023-09-19T05:18:42;24.13;;;4.97;;
63046;SDS011;62025;39.238;9.126;2023-09-19T05:21:07;25.52;;;5.10;;
63046;SDS011;62025;39.238;9.126;2023-09-19T05:23:33;20.85;;;4.68;;
63046;SDS011;62025;39.238;9.126;2023-09-19T05:25:59;20.95;;;4.30;;
63046;SDS011;62025;39.238;9.126;2023-09-19T05:28:25;28.30;;;4.70;;
63046;SDS011;62025;39.238;9.126;2023-09-19T05:30:52;20.40;;;4.47;;
63046;SDS011;62025;39.238;9.126;2023-09-19T05:33:19;27.70;;;6.05;;
63046;SDS011;62025;39.238;9.126;2023-09-19T05:35:45;20.15;;;4.28;;
63046;SDS011;62025;39.238;9.126;2023-09-19T05:38:13;22.15;;;4.32;;
63046;SDS011;62025;39.238;9.126;2023-09-19T05:40:44;21.27;;;4.45;;
63046;SDS011;62025;39.238;9.126;2023-09-19T05:43:11;24.77;;;4.45;;
63046;SDS011;62025;39.238;9.126;2023-09-19T05:45:37;19.95;;;4.78;;
63046;SDS011;62025;39.238;9.126;2023-09-19T05:48:07;29.67;;;4.78;;
63046;SDS011;62025;39.238;9.126;2023-09-19T05:50:41;27.10;;;4.72;;
63046;SDS011;62025;39.238;9.126;2023-09-19T05:53:08;32.63;;;5.23;;
63046;SDS011;62025;39.238;9.126;2023-09-19T05:55:40;26.45;;;5.07;;
63046;SDS011;62025;39.238;9.126;2023-09-19T05:58:06;23.70;;;4.88;;
63046;SDS011;62025;39.238;9.126;2023-09-19T06:00:32;25.98;;;4.68;;
63046;SDS011;62025;39.238;9.126;2023-09-19T06:02:58;30.27;;;5.82;;
63046;SDS011;62025;39.238;9.126;2023-09-19T06:05:25;25.95;;;5.35;;
63046;SDS011;62025;39.238;9.126;2023-09-19T06:07:53;28.40;;;5.75;;
63046;SDS011;62025;39.238;9.126;2023-09-19T06:10:19;22.52;;;4.93;;
63046;SDS011;62025;39.238;9.126;2023-09-19T06:12:46;17.15;;;4.68;;
63046;SDS011;62025;39.238;9.126;2023-09-19T06:15:13;30.48;;;4.93;;
63046;SDS011;62025;39.238;9.126;2023-09-19T06:17:47;17.88;;;4.28;;
63046;SDS011;62025;39.238;9.126;2023-09-19T06:20:15;23.88;;;4.15;;
63046;SDS011;62025;39.238;9.126;2023-09-19T06:22:42;26.67;;;4.93;;
63046;SDS011;62025;39.238;9.126;2023-09-19T06:25:10;27.60;;;4.70;;
63046;SDS011;62025;39.238;9.126;2023-09-19T06:27:44;23.42;;;4.38;;
63046;SDS011;62025;39.238;9.126;2023-09-19T06:30:11;19.35;;;4.15;;
63046;SDS011;62025;39.238;9.126;2023-09-19T06:32:39;20.55;;;4.80;;
63046;SDS011;62025;39.238;9.126;2023-09-19T06:35:09;23.42;;;4.95;;
63046;SDS011;62025;39.238;9.126;2023-09-19T06:37:36;21.17;;;4.93;;
63046;SDS011;62025;39.238;9.126;2023-09-19T06:40:13;27.57;;;4.73;;
63046;SDS011;62025;39.238;9.126;2023-09-19T06:42:43;21.45;;;4.80;;
63046;SDS011;62025;39.238;9.126;2023-09-19T06:45:11;21.10;;;4.47;;
63046;SDS011;62025;39.238;9.126;2023-09-19T06:47:45;30.88;;;5.20;;
63046;SDS011;62025;39.238;9.126;2023-09-19T06:50:16;20.23;;;5.10;;
63046;SDS011;62025;39.238;9.126;2023-09-19T06:52:48;30.60;;;5.53;;
63046;SDS011;62025;39.238;9.126;2023-09-19T06:55:20;29.75;;;6.55;;
63046;SDS011;62025;39.238;9.126;2023-09-19T06:57:50;29.33;;;6.20;;
63046;SDS011;62025;39.238;9.126;2023-09-19T07:00:16;27.50;;;6.28;;
63046;SDS011;62025;39.238;9.126;2023-09-19T07:05:33;35.13;;;6.80;;
63046;SDS011;62025;39.238;9.126;2023-09-19T07:08:08;33.85;;;7.18;;
63046;SDS011;62025;39.238;9.126;2023-09-19T07:10:37;30.20;;;6.72;;
63046;SDS011;62025;39.238;9.126;2023-09-19T07:13:13;37.40;;;6.38;;
63046;SDS011;62025;39.238;9.126;2023-09-19T07:15:42;22.65;;;5.40;;
63046;SDS011;62025;39.238;9.126;2023-09-19T07:18:12;31.52;;;6.13;;
63046;SDS011;62025;39.238;9.126;2023-09-19T07:20:46;31.30;;;6.22;;
63046;SDS011;62025;39.238;9.126;2023-09-19T07:23:15;23.60;;;5.15;;
63046;SDS011;62025;39.238;9.126;2023-09-19T07:25:47;25.35;;;5.25;;
63046;SDS011;62025;39.238;9.126;2023-09-19T07:28:14;21.95;;;5.07;;
63046;SDS011;62025;39.238;9.126;2023-09-19T07:30:41;27.30;;;5.30;;
63046;SDS011;62025;39.238;9.126;2023-09-19T07:33:07;29.75;;;4.75;;
63046;SDS011;62025;39.238;9.126;2023-09-19T07:35:36;26.15;;;4.93;;
63046;SDS011;62025;39.238;9.126;2023-09-19T07:38:06;29.13;;;4.85;;
63046;SDS011;62025;39.238;9.126;2023-09-19T07:40:33;28.00;;;4.53;;
63046;SDS011;62025;39.238;9.126;2023-09-19T07:43:00;23.15;;;4.05;;
63046;SDS011;62025;39.238;9.126;2023-09-19T07:45:29;24.05;;;4.28;;
63046;SDS011;62025;39.238;9.126;2023-09-19T07:47:59;30.92;;;4.32;;
63046;SDS011;62025;39.238;9.126;2023-09-19T07:50:29;22.05;;;4.32;;
63046;SDS011;62025;39.238;9.126;2023-09-19T07:52:55;23.33;;;3.85;;
63046;SDS011;62025;39.238;9.126;2023-09-19T07:55:22;30.13;;;4.53;;
63046;SDS011;62025;39.238;9.126;2023-09-19T07:57:50;32.33;;;4.50;;
63046;SDS011;62025;39.238;9.126;2023-09-19T08:11:34;29.65;;;4.32;;
63046;SDS011;62025;39.238;9.126;2023-09-19T08:14:00;31.77;;;4.22;;
63046;SDS011;62025;39.238;9.126;2023-09-19T08:16:26;26.77;;;4.80;;
63046;SDS011;62025;39.238;9.126;2023-09-19T08:18:53;23.92;;;3.97;;
63046;SDS011;62025;39.238;9.126;2023-09-19T08:21:21;22.10;;;4.68;;
63046;SDS011;62025;39.238;9.126;2023-09-19T08:23:49;26.17;;;4.10;;
63046;SDS011;62025;39.238;9.126;2023-09-19T08:26:15;22.48;;;3.65;;
63046;SDS011;62025;39.238;9.126;2023-09-19T08:28:42;16.17;;;3.33;;
63046;SDS011;62025;39.238;9.126;2023-09-19T08:31:08;24.02;;;3.70;;
63046;SDS011;62025;39.238;9.126;2023-09-19T08:33:34;23.35;;;3.80;;
63046;SDS011;62025;39.238;9.126;2023-09-19T08:36:02;25.40;;;3.85;;
63046;SDS011;62025;39.238;9.126;2023-09-19T08:38:33;27.33;;;4.60;;
63046;SDS011;62025;39.238;9.126;2023-09-19T08:41:01;22.48;;;3.42;;
63046;SDS011;62025;39.238;9.126;2023-09-19T08:43:32;24.80;;;3.95;;
63046;SDS011;62025;39.238;9.126;2023-09-19T08:48:34;22.05;;;4.78;;
63046;SDS011;62025;39.238;9.126;2023-09-19T08:51:02;20.33;;;3.47;;
63046;SDS011;62025;39.238;9.126;2023-09-19T08:56:17;26.75;;;3.90;;
63046;SDS011;62025;39.238;9.126;2023-09-19T09:01:20;24.00;;;3.75;;
63046;SDS011;62025;39.238;9.126;2023-09-19T09:03:53;28.88;;;3.60;;
63046;SDS011;62025;39.238;9.126;2023-09-19T09:06:22;17.88;;;3.30;;
63046;SDS011;62025;39.238;9.126;2023-09-19T09:08:50;17.67;;;3.28;;
63046;SDS011;62025;39.238;9.126;2023-09-19T09:11:17;25.73;;;4.17;;
63046;SDS011;62025;39.238;9.126;2023-09-19T09:13:46;20.80;;;3.95;;
63046;SDS011;62025;39.238;9.126;2023-09-19T09:16:13;18.30;;;3.22;;
63046;SDS011;62025;39.238;9.126;2023-09-19T09:18:44;20.25;;;3.13;;
63046;SDS011;62025;39.238;9.126;2023-09-19T09:21:12;27.38;;;3.47;;
63046;SDS011;62025;39.238;9.126;2023-09-19T09:26:05;18.92;;;3.15;;
63046;SDS011;62025;39.238;9.126;2023-09-19T09:28:33;18.73;;;3.50;;
63046;SDS011;62025;39.238;9.126;2023-09-19T09:31:04;19.63;;;2.78;;
63046;SDS011;62025;39.238;9.126;2023-09-19T09:33:34;22.35;;;3.33;;
63046;SDS011;62025;39.238;9.126;2023-09-19T09:36:02;25.65;;;4.25;;
63046;SDS011;62025;39.238;9.126;2023-09-19T09:38:42;19.92;;;3.70;;
63046;SDS011;62025;39.238;9.126;2023-09-19T09:41:09;25.58;;;3.53;;
63046;SDS011;62025;39.238;9.126;2023-09-19T09:43:40;21.85;;;2.92;;
63046;SDS011;62025;39.238;9.126;2023-09-19T09:48:57;22.30;;;3.05;;
63046;SDS011;62025;39.238;9.126;2023-09-19T09:51:51;18.65;;;3.22;;
63046;SDS011;62025;39.238;9.126;2023-09-19T09:54:41;25.70;;;3.47;;
63046;SDS011;62025;39.238;9.126;2023-09-19T09:57:30;23.67;;;3.40;;
63046;SDS011;62025;39.238;9.126;2023-09-19T09:59:57;24.38;;;4.15;;
63046;SDS011;62025;39.238;9.126;2023-09-19T10:02:54;20.98;;;3.58;;
63046;SDS011;62025;39.238;9.126;2023-09-19T10:05:20;31.65;;;4.20;;
63046;SDS011;62025;39.238;9.126;2023-09-19T10:07:52;33.75;;;4.55;;
63046;SDS011;62025;39.238;9.126;2023-09-19T10:10:36;25.98;;;4.10;;
63046;SDS011;62025;39.238;9.126;2023-09-19T10:13:06;26.05;;;4.03;;
63046;SDS011;62025;39.238;9.126;2023-09-19T10:15:44;30.25;;;4.38;;
63046;SDS011;62025;39.238;9.126;2023-09-19T10:18:25;28.73;;;4.32;;
63046;SDS011;62025;39.238;9.126;2023-09-19T10:20:54;23.05;;;3.67;;
63046;SDS011;62025;39.238;9.126;2023-09-19T10:25:52;25.55;;;4.07;;
63046;SDS011;62025;39.238;9.126;2023-09-19T10:28:19;29.13;;;4.55;;
63046;SDS011;62025;39.238;9.126;2023-09-19T10:30:53;31.67;;;4.28;;
63046;SDS011;62025;39.238;9.126;2023-09-19T10:33:23;41.47;;;4.50;;
63046;SDS011;62025;39.238;9.126;2023-09-19T10:35:54;38.42;;;4.57;;
63046;SDS011;62025;39.238;9.126;2023-09-19T10:38:25;30.92;;;4.22;;
63046;SDS011;62025;39.238;9.126;2023-09-19T10:40:54;33.88;;;4.47;;
63046;SDS011;62025;39.238;9.126;2023-09-19T10:43:28;29.90;;;4.50;;
63046;SDS011;62025;39.238;9.126;2023-09-19T10:46:03;31.52;;;4.03;;
63046;SDS011;62025;39.238;9.126;2023-09-19T10:48:34;30.45;;;5.22;;
63046;SDS011;62025;39.238;9.126;2023-09-19T10:53:32;41.45;;;4.80;;
63046;SDS011;62025;39.238;9.126;2023-09-19T10:56:19;28.48;;;4.40;;
63046;SDS011;62025;39.238;9.126;2023-09-19T10:59:04;28.05;;;4.32;;
63046;SDS011;62025;39.238;9.126;2023-09-19T11:07:04;29.75;;;4.55;;
63046;SDS011;62025;39.238;9.126;2023-09-19T11:09:46;34.40;;;5.32;;
63046;SDS011;62025;39.238;9.126;2023-09-19T11:15:02;26.70;;;4.30;;
63046;SDS011;62025;39.238;9.126;2023-09-19T11:17:40;36.60;;;4.65;;
63046;SDS011;62025;39.238;9.126;2023-09-19T11:33:21;27.83;;;4.30;;
63046;SDS011;62025;39.238;9.126;2023-09-19T11:41:55;25.25;;;4.03;;
63046;SDS011;62025;39.238;9.126;2023-09-19T11:46:30;22.83;;;3.95;;
63046;SDS011;62025;39.238;9.126;2023-09-19T11:49:08;28.90;;;4.30;;
63046;SDS011;62025;39.238;9.126;2023-09-19T11:51:41;27.13;;;4.15;;
63046;SDS011;62025;39.238;9.126;2023-09-19T11:54:13;28.35;;;4.00;;
63046;SDS011;62025;39.238;9.126;2023-09-19T11:56:53;30.42;;;4.45;;
63046;SDS011;62025;39.238;9.126;2023-09-19T11:59:26;26.50;;;4.45;;
63046;SDS011;62025;39.238;9.126;2023-09-19T12:01:58;25.40;;;3.90;;
63046;SDS011;62025;39.238;9.126;2023-09-19T12:04:34;27.13;;;4.30;;
63046;SDS011;62025;39.238;9.126;2023-09-19T12:07:07;30.42;;;3.60;;
63046;SDS011;62025;39.238;9.126;2023-09-19T12:09:44;23.52;;;3.60;;
63046;SDS011;62025;39.238;9.126;2023-09-19T12:14:48;22.15;;;3.47;;
63046;SDS011;62025;39.238;9.126;2023-09-19T12:17:16;24.83;;;3.55;;
63046;SDS011;62025;39.238;9.126;2023-09-19T12:19:52;25.65;;;3.40;;
63046;SDS011;62025;39.238;9.126;2023-09-19T12:22:21;23.88;;;3.53;;
63046;SDS011;62025;39.238;9.126;2023-09-19T12:24:47;27.90;;;4.00;;
63046;SDS011;62025;39.238;9.126;2023-09-19T12:27:13;31.60;;;4.50;;
63046;SDS011;62025;39.238;9.126;2023-09-19T12:29:44;28.25;;;3.95;;
63046;SDS011;62025;39.238;9.126;2023-09-19T12:32:15;25.73;;;4.07;;
63046;SDS011;62025;39.238;9.126;2023-09-19T12:34:52;22.00;;;3.72;;
63046;SDS011;62025;39.238;9.126;2023-09-19T12:37:19;25.80;;;3.63;;
63046;SDS011;62025;39.238;9.126;2023-09-19T12:40:03;26.98;;;3.92;;
63046;SDS011;62025;39.238;9.126;2023-09-19T12:42:46;34.38;;;3.88;;
63046;SDS011;62025;39.238;9.126;2023-09-19T12:45:13;38.47;;;5.40;;
63046;SDS011;62025;39.238;9.126;2023-09-19T12:51:09;17.88;;;4.15;;
63046;SDS011;62025;39.238;9.126;2023-09-19T12:53:45;28.30;;;3.83;;
63046;SDS011;62025;39.238;9.126;2023-09-19T12:56:14;33.78;;;4.03;;
63046;SDS011;62025;39.238;9.126;2023-09-19T12:58:52;26.00;;;4.30;;
63046;SDS011;62025;39.238;9.126;2023-09-19T13:01:28;27.77;;;3.63;;
63046;SDS011;62025;39.238;9.126;2023-09-19T13:06:55;32.88;;;4.63;;
63046;SDS011;62025;39.238;9.126;2023-09-19T13:09:26;26.35;;;3.72;;
63046;SDS011;62025;39.238;9.126;2023-09-19T13:12:04;25.15;;;4.13;;
63046;SDS011;62025;39.238;9.126;2023-09-19T13:15:09;27.45;;;4.10;;
63046;SDS011;62025;39.238;9.126;2023-09-19T13:17:42;24.42;;;4.25;;
63046;SDS011;62025;39.238;9.126;2023-09-19T13:22:57;31.60;;;4.13;;
63046;SDS011;62025;39.238;9.126;2023-09-19T13:25:33;29.38;;;4.28;;
63046;SDS011;62025;39.238;9.126;2023-09-19T13:28:00;26.02;;;4.55;;
63046;SDS011;62025;39.238;9.126;2023-09-19T13:30:29;33.35;;;4.22;;
63046;SDS011;62025;39.238;9.126;2023-09-19T13:33:09;28.52;;;4.50;;
63046;SDS011;62025;39.238;9.126;2023-09-19T13:35:38;32.42;;;4.25;;
63046;SDS011;62025;39.238;9.126;2023-09-19T13:38:07;28.77;;;4.43;;
63046;SDS011;62025;39.238;9.126;2023-09-19T13:40:36;25.23;;;4.63;;
63046;SDS011;62025;39.238;9.126;2023-09-19T13:43:07;32.65;;;5.18;;
63046;SDS011;62025;39.238;9.126;2023-09-19T13:45:33;34.53;;;4.38;;
63046;SDS011;62025;39.238;9.126;2023-09-19T13:47:59;32.88;;;5.00;;
63046;SDS011;62025;39.238;9.126;2023-09-19T13:50:25;24.60;;;4.30;;
63046;SDS011;62025;39.238;9.126;2023-09-19T13:52:51;29.67;;;5.18;;
63046;SDS011;62025;39.238;9.126;2023-09-19T13:55:19;21.98;;;4.45;;
63046;SDS011;62025;39.238;9.126;2023-09-19T13:57:46;29.08;;;4.97;;
63046;SDS011;62025;39.238;9.126;2023-09-19T14:00:15;28.45;;;4.53;;
63046;SDS011;62025;39.238;9.126;2023-09-19T14:02:43;26.98;;;4.35;;
63046;SDS011;62025;39.238;9.126;2023-09-19T14:05:11;33.38;;;5.07;;
63046;SDS011;62025;39.238;9.126;2023-09-19T14:07:40;33.70;;;4.80;;
63046;SDS011;62025;39.238;9.126;2023-09-19T14:10:07;29.17;;;5.00;;
63046;SDS011;62025;39.238;9.126;2023-09-19T14:12:33;20.85;;;4.43;;
63046;SDS011;62025;39.238;9.126;2023-09-19T14:15:05;30.13;;;4.95;;
63046;SDS011;62025;39.238;9.126;2023-09-19T14:17:33;32.70;;;4.90;;
63046;SDS011;62025;39.238;9.126;2023-09-19T14:19:59;26.88;;;4.28;;
63046;SDS011;62025;39.238;9.126;2023-09-19T14:22:25;25.20;;;4.03;;
63046;SDS011;62025;39.238;9.126;2023-09-19T14:24:51;28.15;;;4.57;;
63046;SDS011;62025;39.238;9.126;2023-09-19T14:27:18;21.48;;;4.72;;
63046;SDS011;62025;39.238;9.126;2023-09-19T14:29:44;24.63;;;3.95;;
63046;SDS011;62025;39.238;9.126;2023-09-19T14:32:10;32.30;;;5.07;;
63046;SDS011;62025;39.238;9.126;2023-09-19T14:34:36;27.52;;;4.75;;
63046;SDS011;62025;39.238;9.126;2023-09-19T14:37:07;38.33;;;4.78;;
63046;SDS011;62025;39.238;9.126;2023-09-19T14:39:34;32.87;;;4.87;;
63046;SDS011;62025;39.238;9.126;2023-09-19T14:42:00;25.20;;;4.38;;
63046;SDS011;62025;39.238;9.126;2023-09-19T14:44:26;22.13;;;4.10;;
63046;SDS011;62025;39.238;9.126;2023-09-19T14:46:53;24.33;;;4.60;;
63046;SDS011;62025;39.238;9.126;2023-09-19T14:49:20;29.33;;;4.32;;
63046;SDS011;62025;39.238;9.126;2023-09-19T14:51:46;18.63;;;3.75;;
63046;SDS011;62025;39.238;9.126;2023-09-19T14:54:15;25.65;;;4.10;;
63046;SDS011;62025;39.238;9.126;2023-09-19T14:56:44;27.77;;;4.68;;
63046;SDS011;62025;39.238;9.126;2023-09-19T14:59:10;24.58;;;4.57;;
63046;SDS011;62025;39.238;9.126;2023-09-19T15:01:36;24.55;;;4.13;;
63046;SDS011;62025;39.238;9.126;2023-09-19T15:04:03;31.05;;;5.03;;
63046;SDS011;62025;39.238;9.126;2023-09-19T15:06:29;25.25;;;4.00;;
63046;SDS011;62025;39.238;9.126;2023-09-19T15:08:55;29.35;;;4.43;;
63046;SDS011;62025;39.238;9.126;2023-09-19T15:11:22;31.20;;;4.57;;
63046;SDS011;62025;39.238;9.126;2023-09-19T15:13:50;22.08;;;3.78;;
63046;SDS011;62025;39.238;9.126;2023-09-19T15:16:17;26.70;;;4.57;;
63046;SDS011;62025;39.238;9.126;2023-09-19T15:18:44;24.13;;;4.40;;
63046;SDS011;62025;39.238;9.126;2023-09-19T15:21:13;27.67;;;3.67;;
63046;SDS011;62025;39.238;9.126;2023-09-19T15:23:40;33.97;;;5.03;;
63046;SDS011;62025;39.238;9.126;2023-09-19T15:26:09;28.30;;;4.30;;
63046;SDS011;62025;39.238;9.126;2023-09-19T15:28:37;30.13;;;4.60;;
63046;SDS011;62025;39.238;9.126;2023-09-19T15:31:08;26.83;;;4.10;;
63046;SDS011;62025;39.238;9.126;2023-09-19T15:33:38;28.45;;;4.70;;
63046;SDS011;62025;39.238;9.126;2023-09-19T15:41:28;21.35;;;3.80;;
63046;SDS011;62025;39.238;9.126;2023-09-19T15:44:10;23.40;;;3.78;;
63046;SDS011;62025;39.238;9.126;2023-09-19T15:46:41;28.35;;;5.10;;
63046;SDS011;62025;39.238;9.126;2023-09-19T15:49:08;32.20;;;4.13;;
63046;SDS011;62025;39.238;9.126;2023-09-19T15:51:34;35.03;;;4.43;;
63046;SDS011;62025;39.238;9.126;2023-09-19T15:54:07;21.88;;;4.00;;
63046;SDS011;62025;39.238;9.126;2023-09-19T15:56:39;22.35;;;3.88;;
63046;SDS011;62025;39.238;9.126;2023-09-19T15:59:06;27.38;;;4.03;;
63046;SDS011;62025;39.238;9.126;2023-09-19T16:01:34;24.60;;;4.25;;
63046;SDS011;62025;39.238;9.126;2023-09-19T16:04:00;21.27;;;4.13;;
63046;SDS011;62025;39.238;9.126;2023-09-19T16:06:27;19.73;;;4.20;;
63046;SDS011;62025;39.238;9.126;2023-09-19T16:08:56;21.70;;;3.95;;
63046;SDS011;62025;39.238;9.126;2023-09-19T16:11:25;31.60;;;4.35;;
63046;SDS011;62025;39.238;9.126;2023-09-19T16:13:52;28.58;;;4.35;;
63046;SDS011;62025;39.238;9.126;2023-09-19T16:16:20;28.10;;;4.45;;
63046;SDS011;62025;39.238;9.126;2023-09-19T16:18:54;29.30;;;3.80;;
63046;SDS011;62025;39.238;9.126;2023-09-19T16:21:23;23.77;;;4.18;;
63046;SDS011;62025;39.238;9.126;2023-09-19T16:23:51;24.85;;;4.13;;
63046;SDS011;62025;39.238;9.126;2023-09-19T16:26:21;33.40;;;4.30;;
63046;SDS011;62025;39.238;9.126;2023-09-19T16:28:52;24.98;;;3.80;;